METAR des aéroports

 

LFBA - AGEN (Lot-et-Garonne)
Mise à jour: 18/10/2017 03:30
Clair
Clair
 Vent ESE
Vent: ESE 15 km/h
Température: 15°C
Point de Rosée: 13°C
Humidité: 88%
Barometre: 1014 hPa
Visibilité: Supérieure à  10 km
2017/10/18 01:30 LFBA 180130Z AUTO 12008KT CAVOK 15/13 Q1014
LFKJ - AJACCIO (Corse-du-Sud)
Mise à jour: 18/10/2017 03:30
Clair
Clair
 Vent NE
Vent: NE 11 km/h
Température: 11°C
Point de Rosée: 9°C
Humidité: 88%
Barometre: 1021 hPa
Visibilité: Supérieure à  10 km
2017/10/18 01:30 LFKJ 180130Z AUTO 05006KT CAVOK 11/09 Q1021 NOSIG
 
LFJR - ANGERS (Maine-et-Loire)
Mise à jour: 18/10/2017 03:30
Légère pluie, Partiellement nuageux
Légère pluie, Partiellement nuageux
 Vent SSE
Vent: SSE 7 km/h
Température: 16°C
Point de Rosée: 13°C
Humidité: 83%
Barometre: 1013 hPa
Nuage: Partiellement nuageux
Visibilité: 10 km
2017/10/18 01:30 LFJR 180130Z AUTO 16004KT 9999 -RA NSC 16/13 Q1013
LFLP - ANNECY (Haute-Savoie)
Mise à jour: 18/10/2017 03:30
Clair
Clair
 Vent variable
Vent: variable 4 km/h
Température: 6°C
Point de Rosée: 5°C
Humidité: 93%
Barometre: 1020 hPa
Visibilité: Supérieure à  10 km
2017/10/18 01:30 LFLP 180130Z AUTO VRB02KT CAVOK 06/05 Q1020
 
LFMV - AVIGNON (Vaucluse)
Mise à jour: 18/10/2017 03:30
Clair
Clair
 Vent SSE
Vent: SSE 11 km/h
Température: 12°C
Point de Rosée: 9°C
Humidité: 82%
Barometre: 1020 hPa
Visibilité: Supérieure à  10 km
2017/10/18 01:30 LFMV 180130Z AUTO 16006KT CAVOK 12/09 Q1020
LFOA - AVORD (Cher)
Mise à jour: 18/10/2017 03:30
Clair
Clair
 Vent ENE
Vent: ENE 6 km/h
Température: 10°C
Point de Rosée: 8°C
Humidité: 88%
Barometre: 1015 hPa
Visibilité: Supérieure à  10 km
2017/10/18 01:30 LFOA 180130Z AUTO 07003KT CAVOK 10/08 Q1015 TEMPO 3000 BR
 
LFSB - BALE - MULHOUSE (Haut-Rhin)
Mise à jour: 18/10/2017 03:30
Clair
Clair
 Vent S
Vent: S 13 km/h
Température: 10°C
Température au Vent: 8°C
Point de Rosée: 7°C
Humidité: 82%
Barometre: 1018 hPa
Visibilité: Supérieure à  10 km
2017/10/18 01:30 LFSB 180130Z AUTO 18007KT CAVOK 10/07 Q1018 NOSIG
LFKB - BASTIA (Haute-Corse)
Mise à jour: 18/10/2017 03:30
Clair
Clair
 Vent SW
Vent: SW 6 km/h
Température: 12°C
Point de Rosée: 11°C
Humidité: 94%
Barometre: 1021 hPa
Visibilité: Supérieure à  10 km
2017/10/18 01:30 LFKB 180130Z 22003KT CAVOK 12/11 Q1021 NOSIG
 
LFOB - BEAUVAIS (Oise)
Mise à jour: 18/10/2017 03:30

 Vent calm
Vent: Calme
Visibilité: 0 km
2017/10/18 01:30 LFOB 180130Z AUTO 00000KT 0250 0200 R30/0250N R12/0325N FG VV/// 12/12 Q1013 NOSIG
LFBE - BERGERAC (Dordogne)
Mise à jour: 18/10/2017 03:30
Clair
Clair
 Vent ENE
Vent: ENE 6 km/h
Température: 14°C
Point de Rosée: 12°C
Humidité: 88%
Barometre: 1014 hPa
Visibilité: Supérieure à  10 km
2017/10/18 01:30 LFBE 180130Z AUTO 07003KT CAVOK 14/12 Q1014 BECMG 15010KT
 
LFMU - BEZIERS (Hérault)
Mise à jour: 18/10/2017 03:30
Couvert
Couvert
 Vent ESE
Vent: ESE 22 km/h
Température: 19°C
Point de Rosée: 17°C
Humidité: 88%
Barometre: 1018 hPa
Nuage: Couvert
Visibilité: 10 km
2017/10/18 01:30 LFMU 180130Z AUTO 11012KT 9999 OVC014 19/17 Q1018
LFBZ - BIARRITZ (Pyrénées-Atlantiques)
Mise à jour: 18/10/2017 03:30
Légère pluie, Orageux
Légère pluie, Orageux
 Vent S
Vent: S 11 km/h
Température: 18°C
Point de Rosée: 17°C
Humidité: 94%
Barometre: 1013 hPa
Nuage: Orageux
Visibilité: 8 km
2017/10/18 01:30 LFBZ 180130Z AUTO 19006KT 140V260 8000 -RA FEW058/// BKN100/// OVC120/// ///TCU 18/17 Q1013 TEMPO 4500 -RA FEW050CB OVC060
 
LFBD - BORDEAUX (Gironde)
Mise à jour: 18/10/2017 03:30
Clair
Clair
 Vent SE
Vent: SE 19 km/h
Température: 18°C
Point de Rosée: 15°C
Humidité: 83%
Barometre: 1013 hPa
Visibilité: Supérieure à  10 km
2017/10/18 01:30 LFBD 180130Z AUTO 14010KT CAVOK 18/15 Q1013 TEMPO BKN040CB
LFSL - BRIVE (Correze)
Mise à jour: 18/10/2017 03:30
Clair
Clair
 Vent SE
Vent: SE 11 km/h
Température: 15°C
Point de Rosée: 11°C
Humidité: 77%
Barometre: 1016 hPa
Visibilité: Supérieure à  10 km
2017/10/18 01:30 LFSL 180130Z AUTO 13006KT 100V170 CAVOK 15/11 Q1016
 
LFRK - CAEN (Calvados)
Mise à jour: 18/10/2017 03:30
Partiellement nuageux
Partiellement nuageux
 Vent SSE
Vent: SSE 6 km/h
Température: 11°C
Point de Rosée: 10°C
Humidité: 94%
Barometre: 1012 hPa
Nuage: Partiellement nuageux
Visibilité: 7 km
2017/10/18 01:30 LFRK 180130Z AUTO 15003KT 7000 NSC 11/10 Q1012
LFKC - CALVI (Haute-Corse)
Mise à jour: 18/10/2017 03:30
Clair
Clair
 Vent S
Vent: S 9 km/h
Température: 12°C
Point de Rosée: 10°C
Humidité: 88%
Barometre: 1021 hPa
Visibilité: Supérieure à  10 km
2017/10/18 01:30 LFKC 180130Z AUTO 17005KT CAVOK 12/10 Q1021
 
LFMD - CANNES (Alpes-Maritimes)
Mise à jour: 18/10/2017 03:30
Quelques nuages
Quelques nuages
 Vent N
Vent: N 9 km/h
Température: 11°C
Point de Rosée: 9°C
Humidité: 88%
Barometre: 1021 hPa
Nuage: Quelques nuages
Visibilité: 10 km
2017/10/18 01:30 LFMD 180130Z AUTO 01005KT 320V040 9999 FEW013 11/09 Q1021
LFMK - CARCASSONNE (Aude)
Mise à jour: 18/10/2017 03:30
Couvert
Couvert
 Vent E
Vent: E 22 km/h
Température: 18°C
Point de Rosée: 16°C
Humidité: 88%
Barometre: 1016 hPa
Nuage: Couvert
Visibilité: 10 km
2017/10/18 01:30 LFMK 180130Z AUTO 10012KT 080V160 9999 BKN009 OVC017 18/16 Q1016
 
LFBC - CAZAUX (Gironde)
Mise à jour: 18/10/2017 03:30
Légère pluie, Partiellement nuageux
Légère pluie, Partiellement nuageux
 Vent E
Vent: E 6 km/h
Température: 17°C
Point de Rosée: 15°C
Humidité: 88%
Barometre: 1012 hPa
Nuage: Partiellement nuageux
Visibilité: 10 km
2017/10/18 01:30 LFBC 180130Z AUTO 10003KT 060V130 9999 -RA NSC 17/15 Q1012 NOSIG
LFLB - CHAMBERY (Savoie)
Mise à jour: 18/10/2017 03:30
Partiellement nuageux
Partiellement nuageux
 Vent calm
Vent: Calme
Température: 6°C
Point de Rosée: 6°C
Humidité: 100%
Barometre: 1020 hPa
Nuage: Partiellement nuageux
Visibilité: 7 km
2017/10/18 01:30 LFLB 180130Z AUTO 00000KT 7000 NSC 06/06 Q1020 TEMPO 0400 BCFG
 
LFOC - CHATEAUDUN (Eure-et-Loir)
Mise à jour: 18/10/2017 03:30
Clair
Clair
 Vent calm
Vent: Calme
Température: 10°C
Point de Rosée: 10°C
Humidité: 100%
Barometre: 1014 hPa
Visibilité: Supérieure à  10 km
2017/10/18 01:30 LFOC 180130Z AUTO 00000KT CAVOK 10/10 Q1014
LFLX - CHATEAUROUX (Indre)
Mise à jour: 18/10/2017 03:30
Clair
Clair
 Vent E
Vent: E 6 km/h
Température: 9°C
Point de Rosée: 8°C
Humidité: 94%
Barometre: 1015 hPa
Visibilité: Supérieure à  10 km
2017/10/18 01:30 LFLX 180130Z AUTO 10003KT CAVOK 09/08 Q1015 NOSIG
 
LFRC - CHERBOURG (Manche)
Mise à jour: 18/10/2017 03:30
Partiellement nuageux
Partiellement nuageux
 Vent SE
Vent: SE 9 km/h
Température: 14°C
Point de Rosée: 13°C
Humidité: 94%
Barometre: 1011 hPa
Nuage: Partiellement nuageux
Visibilité: 8 km
2017/10/18 01:30 LFRC 180130Z AUTO 14005KT 8000 NSC 14/13 Q1011
LFLC - CLERMONT (Puy-De-Dôme)
Mise à jour: 18/10/2017 03:30
Clair
Clair
 Vent variable
Vent: variable 6 km/h
Température: 14°C
Point de Rosée: 8°C
Humidité: 67%
Barometre: 1016 hPa
Visibilité: Supérieure à  10 km
2017/10/18 01:30 LFLC 180130Z AUTO VRB03KT CAVOK 14/08 Q1016 NOSIG
 
LFBG - COGNAC (Charente)
Mise à jour: 18/10/2017 03:30
Clair
Clair
 Vent SE
Vent: SE 19 km/h
Température: 18°C
Point de Rosée: 12°C
Humidité: 68%
Barometre: 1013 hPa
Visibilité: Supérieure à  10 km
2017/10/18 01:30 LFBG 180130Z AUTO 14010KT CAVOK 18/12 Q1013 NOSIG
LFRG - DEAUVILLE (Calvados)
Mise à jour: 18/10/2017 03:30
Brouillard, Partiellement nuageux
Brouillard, Partiellement nuageux
 Vent SSE
Vent: SSE 9 km/h
Température: 14°C
Point de Rosée: 13°C
Humidité: 94%
Barometre: 1013 hPa
Nuage: Partiellement nuageux
Visibilité: 5 km
2017/10/18 01:30 LFRG 180130Z AUTO 16005KT 100V220 5000 BR NSC 14/13 Q1013
 
LFSD - DIJON (Côte d-Or)
Mise à jour: 18/10/2017 03:30
Clair
Clair
 Vent calm
Vent: Calme
Température: 8°C
Point de Rosée: 6°C
Humidité: 87%
Barometre: 1018 hPa
Visibilité: Supérieure à  10 km
2017/10/18 01:30 LFSD 180130Z AUTO 00000KT CAVOK 08/06 Q1018
LFRD - DINARD (Ille-et-Vilaine)
Mise à jour: 18/10/2017 03:30
Orageux
Orageux
 Vent variable
Vent: variable 4 km/h
Température: 15°C
Point de Rosée: 14°C
Humidité: 94%
Barometre: 1011 hPa
Nuage: Orageux
Visibilité: 6 km
2017/10/18 01:30 LFRD 180130Z AUTO VRB02KT 6000 ///TCU 15/14 Q1011 TEMPO 4000 -RA BR BKN003
 
LFGJ - DOLE (Jura)
Mise à jour: 18/10/2017 03:30
Clair
Clair
 Vent ESE
Vent: ESE 11 km/h
Température: 10°C
Température au Vent: 8°C
Point de Rosée: 9°C
Humidité: 94%
Barometre: 1018 hPa
Visibilité: Supérieure à  10 km
2017/10/18 01:30 LFGJ 180130Z AUTO 11006KT CAVOK 10/09 Q1018
FMCZ - DZAOUDZI-PAMANDZI (Mayotte)
Mise à jour: 18/10/2017 03:30
Clair
Clair
 Vent NNE
Vent: NNE 17 km/h
Température: 27°C
Humidex: 30°C
Point de Rosée: 23°C
Humidité: 79%
Barometre: 1011 hPa
Nuage: Clair
Visibilité: 10 km
2017/10/18 01:30 FMCZ 180130Z AUTO 02009KT 340V070 9999 NCD 27/23 Q1011 NOSIG
 
LFOE - EVREUX (Eure)
Mise à jour: 18/10/2017 03:30

 Vent S
Vent: S 4 km/h
Visibilité: 0 km
2017/10/18 01:30 LFOE 180130Z AUTO 18002KT 0250 0200 R22/0400N FG VV/// 11/10 Q1013
LFKF - FIGARI (Corse-du-Sud)
Mise à jour: 18/10/2017 03:30
Clair
Clair
 Vent N
Vent: N 6 km/h
Température: 12°C
Point de Rosée: 11°C
Humidité: 94%
Barometre: 1021 hPa
Visibilité: Supérieure à  10 km
2017/10/18 01:30 LFKF 180130Z AUTO 01003KT CAVOK 12/11 Q1021
 
LFLS - GRENOBLE (Isère)
Mise à jour: 18/10/2017 03:30
Quelques nuages
Quelques nuages
 Vent SW
Vent: SW 15 km/h
Température: 13°C
Point de Rosée: 11°C
Humidité: 88%
Barometre: 1020 hPa
Nuage: Quelques nuages
Visibilité: 10 km
2017/10/18 01:30 LFLS 180130Z AUTO 23008KT 9999 FEW020 13/11 Q1020
LFTH - HYERES (Var)
Mise à jour: 18/10/2017 03:30
Partiellement nuageux
Partiellement nuageux
 Vent NNW
Vent: NNW 7 km/h
Température: 13°C
Point de Rosée: 12°C
Humidité: 94%
Barometre: 1021 hPa
Nuage: Partiellement nuageux
Visibilité: 8 km
2017/10/18 01:30 LFTH 180130Z AUTO 34004KT 8000 NSC 13/12 Q1021 TEMPO FEW005 BKN008
 
LFMI - ISTRES Bouches-du-Rhône)
Mise à jour: 18/10/2017 03:30
Couvert
Couvert
 Vent ENE
Vent: ENE 11 km/h
Température: 15°C
Point de Rosée: 13°C
Humidité: 88%
Barometre: 1020 hPa
Nuage: Couvert
Visibilité: 9 km
2017/10/18 01:30 LFMI 180130Z AUTO 07006KT 9000 FEW016 OVC160 15/13 Q1020 NOSIG
LFRI - LA ROCHE SUR YON (Vendée)
Mise à jour: 18/10/2017 03:30
Clair
Clair
 Vent SE
Vent: SE 11 km/h
Température: 16°C
Point de Rosée: 15°C
Humidité: 94%
Barometre: 1012 hPa
Visibilité: Supérieure à  10 km
2017/10/18 01:30 LFRI 180130Z AUTO 14006KT CAVOK 16/15 Q1012
 
LFBH - LA ROCHELLE (Charente-Maritime)
Mise à jour: 18/10/2017 03:30
Clair
Clair
 Vent SSE
Vent: SSE 13 km/h
Température: 18°C
Point de Rosée: 14°C
Humidité: 78%
Barometre: 1012 hPa
Visibilité: Supérieure à  10 km
2017/10/18 01:30 LFBH 180130Z AUTO 15007KT CAVOK 18/14 Q1012 TEMPO FEW040CB
LFRJ - LANDIVISIAU (Finistère)
Mise à jour: 18/10/2017 03:30
Couvert
Couvert
 Vent SSW
Vent: SSW 17 km/h
Température: 14°C
Point de Rosée: 14°C
Humidité: 100%
Barometre: 1011 hPa
Nuage: Couvert
Visibilité: 6 km
2017/10/18 01:30 LFRJ 180130Z AUTO 21009KT 6000 OVC005 14/14 Q1011 TEMPO 2000 BCFG BECMG NSC
 
LFOV - LAVAL (Mayenne)
Mise à jour: 18/10/2017 02:00
Pas Actualisé
Clair
Clair
 Vent variable
Vent: variable 4 km/h
Température: 14°C
Point de Rosée: 13°C
Humidité: 94%
Barometre: 1013 hPa
Visibilité: Supérieure à  10 km
2017/10/18 00:00 LFOV 180000Z AUTO VRB02KT CAVOK 14/13 Q1013
LFOH - LE HAVRE (Seine-Maritime)
Mise à jour: 18/10/2017 03:30
Partiellement nuageux
Partiellement nuageux
 Vent ESE
Vent: ESE 11 km/h
Température: 15°C
Point de Rosée: 14°C
Humidité: 94%
Barometre: 1012 hPa
Nuage: Partiellement nuageux
Visibilité: 6 km
2017/10/18 01:30 LFOH 180130Z AUTO 11006KT 6000 NSC 15/14 Q1012
 
TFFF - LE LAMENTIN (Martinique)
Mise à jour: 18/10/2017 03:30
Nuageux
Nuageux
 Vent ESE
Vent: ESE 22 km/h
Température: 27°C
Humidex: 31°C
Point de Rosée: 25°C
Humidité: 89%
Barometre: 1015 hPa
Nuage: Nuageux
Visibilité: 10 km
2017/10/18 01:30 TFFF 180130Z AUTO 11012KT 9999 FEW023 BKN028 BKN033 27/25 Q1015 TEMPO 4000 SHRA BKN020TCU
LFAT - LE TOUQUET (Pas-de-Calais)
Mise à jour: 18/10/2017 03:30
Clair
Clair
 Vent ESE
Vent: ESE 9 km/h
Température: 13°C
Point de Rosée: 12°C
Humidité: 94%
Barometre: 1013 hPa
Visibilité: Supérieure à  10 km
2017/10/18 01:30 LFAT 180130Z AUTO 12005KT CAVOK 13/12 Q1013
 
LFQQ - LILLE (Nord)
Mise à jour: 18/10/2017 03:30
Clair
Clair
 Vent NE
Vent: NE 7 km/h
Température: 12°C
Point de Rosée: 10°C
Humidité: 88%
Barometre: 1014 hPa
Visibilité: Supérieure à  10 km
2017/10/18 01:30 LFQQ 180130Z AUTO 04004KT CAVOK 12/10 Q1014 BECMG 4000 BR
LFBL - LIMOGES (Haute-Vienne)
Mise à jour: 18/10/2017 03:30
Clair
Clair
 Vent ESE
Vent: ESE 15 km/h
Température: 14°C
Point de Rosée: 10°C
Humidité: 77%
Barometre: 1016 hPa
Visibilité: Supérieure à  10 km
2017/10/18 01:30 LFBL 180130Z AUTO 12008KT CAVOK 14/10 Q1016 NOSIG
 
LFRH - LANN BIHOUE (Morbihan)
Mise à jour: 18/10/2017 03:30
Clair
Clair
 Vent SW
Vent: SW 6 km/h
Température: 15°C
Point de Rosée: 14°C
Humidité: 94%
Barometre: 1011 hPa
Visibilité: Supérieure à  10 km
2017/10/18 01:30 LFRH 180130Z AUTO 22003KT CAVOK 15/14 Q1011 NOSIG
LFSX - LUXEUIL (Haute-Saône)
Mise à jour: 18/10/2017 03:30
Clair
Clair
 Vent ESE
Vent: ESE 7 km/h
Température: 6°C
Température au Vent: 4°C
Point de Rosée: 5°C
Humidité: 93%
Barometre: 1018 hPa
Visibilité: Supérieure à  10 km
2017/10/18 01:30 LFSX 180130Z AUTO 12004KT 100V190 CAVOK 06/05 Q1018 NOSIG
 
LFLY - LYON Bron (Rhône)
Mise à jour: 18/10/2017 03:30
Clair
Clair
 Vent SSE
Vent: SSE 15 km/h
Température: 15°C
Point de Rosée: 12°C
Humidité: 82%
Barometre: 1018 hPa
Visibilité: Supérieure à  10 km
2017/10/18 01:30 LFLY 180130Z AUTO 15008KT CAVOK 15/12 Q1018 NOSIG
LFLL - LYON Saint-Exupery (Rhône)
Mise à jour: 18/10/2017 03:30
Clair
Clair
 Vent SSE
Vent: SSE 11 km/h
Température: 15°C
Point de Rosée: 11°C
Humidité: 77%
Barometre: 1019 hPa
Visibilité: Supérieure à  10 km
2017/10/18 01:30 LFLL 180130Z 15006KT CAVOK 15/11 Q1019 NOSIG
 
LFML - MARSEILLE PROVENCE (Bouches-du-Rhône)
Mise à jour: 18/10/2017 03:30
Clair
Clair
 Vent NE
Vent: NE 7 km/h
Température: 15°C
Point de Rosée: 10°C
Humidité: 72%
Barometre: 1020 hPa
Visibilité: Supérieure à  10 km
2017/10/18 01:30 LFML 180130Z AUTO 05004KT CAVOK 15/10 Q1020 NOSIG
LFJL - METZ-NANCY LORRAINE (Moselle)
Mise à jour: 18/10/2017 03:30
Clair
Clair
 Vent SSE
Vent: SSE 24 km/h
Température: 12°C
Point de Rosée: 7°C
Humidité: 72%
Barometre: 1016 hPa
Visibilité: Supérieure à  10 km
2017/10/18 01:30 LFJL 180130Z AUTO 15013KT CAVOK 12/07 Q1016 NOSIG
 
LFBM - MONT DE MARSAN (Landes)
Mise à jour: 18/10/2017 03:30
Bruine
Bruine
 Vent E
Vent: E 6 km/h
Température: 17°C
Point de Rosée: 15°C
Humidité: 88%
Barometre: 1013 hPa
Visibilité: 10 km
2017/10/18 01:30 LFBM 180130Z AUTO 09003KT 060V120 9999 DZ ////// 17/15 Q1013
LFMT - MONTPELLIER (Hérault)
Mise à jour: 18/10/2017 03:30
Couvert
Couvert
 Vent E
Vent: E 20 km/h
Température: 17°C
Point de Rosée: 16°C
Humidité: 94%
Barometre: 1019 hPa
Nuage: Couvert
Visibilité: 9 km
2017/10/18 01:30 LFMT 180130Z AUTO 08011KT 9000 OVC009 17/16 Q1019 TEMPO BKN003
 
LFRS - NANTES (Loire-Atlantique)
Mise à jour: 18/10/2017 03:30
Légère pluie, Partiellement nuageux
Légère pluie, Partiellement nuageux
 Vent SSE
Vent: SSE 11 km/h
Température: 17°C
Point de Rosée: 16°C
Humidité: 94%
Barometre: 1012 hPa
Nuage: Partiellement nuageux
Visibilité: 8 km
2017/10/18 01:30 LFRS 180130Z AUTO 15006KT 8000 -RA NSC 17/16 Q1012 TEMPO BKN005
LFMN - NICE Alpes-Maritimes)
Mise à jour: 18/10/2017 03:30
Partiellement nuageux
Partiellement nuageux
 Vent NNW
Vent: NNW 15 km/h
Température: 15°C
Point de Rosée: 8°C
Humidité: 63%
Barometre: 1021 hPa
Nuage: Partiellement nuageux
Visibilité: 10 km
2017/10/18 01:30 LFMN 180130Z 33008KT 9999 SCT016 15/08 Q1021 NOSIG
 
LFMO - ORANGE (Vaucluse)
Mise à jour: 18/10/2017 03:30
Partiellement nuageux
Partiellement nuageux
 Vent calm
Vent: Calme
Température: 9°C
Point de Rosée: 8°C
Humidité: 94%
Barometre: 1020 hPa
Nuage: Partiellement nuageux
Visibilité: 7 km
2017/10/18 01:30 LFMO 180130Z AUTO 00000KT 7000 NSC 09/08 Q1020 TEMPO 0500 BCFG
LFPG - PARIS CH. DE-GAULLE (Val d-Oise)
Mise à jour: 18/10/2017 03:30
Brouillard, Partiellement nuageux
Brouillard, Partiellement nuageux
 Vent SSE
Vent: SSE 7 km/h
Température: 14°C
Point de Rosée: 13°C
Humidité: 94%
Barometre: 1014 hPa
Nuage: Partiellement nuageux
Visibilité: 5 km
2017/10/18 01:30 LFPG 180130Z 15004KT 5000 BR NSC 14/13 Q1014 NOSIG
 
LFPB - PARIS LE BOURGET (Seine-Saint-Denis)
Mise à jour: 18/10/2017 03:30
Brouillard, Partiellement nuageux
Brouillard, Partiellement nuageux
 Vent E
Vent: E 7 km/h
Température: 12°C
Point de Rosée: 12°C
Humidité: 100%
Barometre: 1014 hPa
Nuage: Partiellement nuageux
Visibilité: 4 km
2017/10/18 01:30 LFPB 180130Z AUTO 08004KT 3600 BR NSC 12/12 Q1014 TEMPO 9999 NSW
LFPO - PARIS ORLY (Val-de-Marne)
Mise à jour: 18/10/2017 03:30

 Vent SSE
Vent: SSE 4 km/h
Visibilité: 4 km
2017/10/18 01:30 LFPO 180130Z 15002KT 4000 0600 R02/P2000 R26/0550D R08/1700U R24/P2000 R06/0900U BCFG FEW002 13/13 Q1014 TEMPO CAVOK
 
LFBP - PAU (Pyrénées-Atlantiques)
Mise à jour: 18/10/2017 03:30
Légère pluie, Orageux
Légère pluie, Orageux
 Vent variable
Vent: variable 4 km/h
Température: 17°C
Point de Rosée: 14°C
Humidité: 83%
Barometre: 1013 hPa
Nuage: Orageux
Visibilité: 10 km
2017/10/18 01:30 LFBP 180130Z AUTO VRB02KT 9999 -RA FEW010/// BKN100/// ///TCU 17/14 Q1013 BECMG BKN080
LFMP - PERPIGNAN (Pyrénées-Orientales)
Mise à jour: 18/10/2017 03:30
Clair
Clair
 Vent WNW
Vent: WNW 9 km/h
Température: 15°C
Point de Rosée: 13°C
Humidité: 88%
Barometre: 1016 hPa
Visibilité: Supérieure à  10 km
2017/10/18 01:30 LFMP 180130Z AUTO 30005KT CAVOK 15/13 Q1016
 
TFFR - Point à Pitre (Guadeloupe)
Mise à jour: 18/10/2017 03:30
Quelques nuages
Quelques nuages
 Vent E
Vent: E 17 km/h
Température: 27°C
Humidex: 30°C
Point de Rosée: 23°C
Humidité: 79%
Barometre: 1015 hPa
Nuage: Quelques nuages
Visibilité: 10 km
2017/10/18 01:30 TFFR 180130Z AUTO 10009KT 9999 FEW025 27/23 Q1015 TEMPO 4000 SHRA BKN020TCU
LFBI - POITIERS (Vienne)
Mise à jour: 18/10/2017 03:30
Clair
Clair
 Vent S
Vent: S 9 km/h
Température: 15°C
Point de Rosée: 12°C
Humidité: 82%
Barometre: 1014 hPa
Visibilité: Supérieure à  10 km
2017/10/18 01:30 LFBI 180130Z AUTO 17005KT CAVOK 15/12 Q1014 NOSIG
 
LFRQ - QUIMPER (Finistère)
Mise à jour: 18/10/2017 03:30
Quelques nuages
Quelques nuages
 Vent W
Vent: W 6 km/h
Température: 13°C
Point de Rosée: 12°C
Humidité: 94%
Barometre: 1011 hPa
Nuage: Quelques nuages
Visibilité: 10 km
2017/10/18 01:30 LFRQ 180130Z AUTO 27003KT 9999 FEW009 13/12 Q1011
LFRN - RENNES (Ille-et-Vilaine)
Mise à jour: 18/10/2017 03:30
Partiellement nuageux
Partiellement nuageux
 Vent SE
Vent: SE 6 km/h
Température: 15°C
Point de Rosée: 14°C
Humidité: 94%
Barometre: 1011 hPa
Nuage: Partiellement nuageux
Visibilité: 7 km
2017/10/18 01:30 LFRN 180130Z AUTO 14003KT 7000 NSC 15/14 Q1011 TEMPO 4000 -RA BR BKN004
 
LFCR - RODEZ (Aveyron)
Mise à jour: 18/10/2017 03:30
Clair
Clair
 Vent SE
Vent: SE 24 km/h
Température: 15°C
Point de Rosée: 11°C
Humidité: 77%
Barometre: 1017 hPa
Visibilité: Supérieure à  10 km
2017/10/18 01:30 LFCR 180130Z AUTO 13013KT CAVOK 15/11 Q1017 TEMPO BKN010
LFOP - ROUEN (Seine-Maritime)
Mise à jour: 18/10/2017 03:30

 Vent ESE
Vent: ESE 7 km/h
Visibilité: 1 km
2017/10/18 01:30 LFOP 180130Z AUTO 12004KT 1000 0600 R22/1800N BCFG NSC 13/12 Q1013
 
LFRT - SAINT-BRIEUC (Côtes d-Armor)
Mise à jour: 17/10/2017 23:00
Pas Actualisé
Clair
Clair
 Vent variable
Vent: variable 4 km/h
Température: 14°C
Point de Rosée: 13°C
Humidité: 94%
Barometre: 1012 hPa
Visibilité: Supérieure à  10 km
2017/10/17 21:00 LFRT 172100Z AUTO VRB02KT CAVOK 14/13 Q1012
FMEE - Saint-Denis (Réunion)
Mise à jour: 18/10/2017 03:30
Dense pluie, Brouillard, Orageux
Dense pluie, Brouillard, Orageux
 Vent ESE
Vent: ESE 7 km/h
Température: 22°C
Point de Rosée: 21°C
Humidité: 94%
Barometre: 1016 hPa
Nuage: Orageux
Visibilité: 5 km
2017/10/18 01:30 FMEE 180130Z AUTO 12004KT 080V180 5000 +RA BR BKN018/// OVC023/// ///TCU 22/21 Q1016 BECMG NSW FEW023 SCT040
 
LFMH - SAINT-ETIENNE (Loire)
Mise à jour: 18/10/2017 03:30
Clair
Clair
 Vent SSE
Vent: SSE 9 km/h
Température: 13°C
Point de Rosée: 6°C
Humidité: 63%
Barometre: 1018 hPa
Visibilité: Supérieure à  10 km
2017/10/18 01:30 LFMH 180130Z AUTO 16005KT CAVOK 13/06 Q1018
LFRZ - SAINT-NAZAIRE (Loire-Atlantique)
Mise à jour: 18/10/2017 03:30
Brouillard, Couvert
Brouillard, Couvert
 Vent SSW
Vent: SSW 9 km/h
Température: 17°C
Point de Rosée: 16°C
Humidité: 94%
Barometre: 1011 hPa
Nuage: Couvert
Visibilité: 5 km
2017/10/18 01:30 LFRZ 180130Z AUTO 20005KT 5000 BR OVC005 17/16 Q1011 NOSIG
 
LFVP - SAINT-PIERRE (St Pierre et Miquelon)
Mise à jour: 18/10/2017 01:00
Pas Actualisé
Nuageux
Nuageux
 Vent NW
Vent: NW 13 km/h
Température: 6°C
Température au Vent: 3°C
Point de Rosée: 5°C
Humidité: 93%
Barometre: 1014 hPa
Nuage: Nuageux
Visibilité: 10 km
2017/10/17 23:00 LFVP 172300Z 32007KT 9999 BKN023 BKN050 06/05 Q1014 NOSIG
LFLN - SAINT-YAN (Saône-et-Loire)
Mise à jour: 18/10/2017 03:30
Clair
Clair
 Vent calm
Vent: Calme
Température: 7°C
Point de Rosée: 4°C
Humidité: 81%
Barometre: 1016 hPa
Visibilité: Supérieure à  10 km
2017/10/18 01:30 LFLN 180130Z AUTO 00000KT CAVOK 07/04 Q1016
 
LFMY - SALON (Bouches-du-Rhône)
Mise à jour: 18/10/2017 03:30
Partiellement nuageux
Partiellement nuageux
 Vent variable
Vent: variable 4 km/h
Température: 11°C
Point de Rosée: 11°C
Humidité: 100%
Barometre: 1021 hPa
Nuage: Partiellement nuageux
Visibilité: 6 km
2017/10/18 01:30 LFMY 180130Z AUTO VRB02KT 6000 NSC 11/11 Q1021 TEMPO 3000 BR
SOCA - MATURY (Guyane)
Mise à jour: 18/10/2017 03:30
Partiellement nuageux
Partiellement nuageux
 Vent ESE
Vent: ESE 6 km/h
Température: 27°C
Humidex: 31°C
Point de Rosée: 24°C
Humidité: 84%
Barometre: 1014 hPa
Nuage: Partiellement nuageux
Visibilité: 10 km
2017/10/18 01:30 SOCA 180130Z AUTO 12003KT 9999 FEW021 SCT036 27/24 Q1014 NOSIG
 
LFKS - SOLENZARA (Corse-du-Sud)
Mise à jour: 18/10/2017 03:30
Clair
Clair
 Vent WNW
Vent: WNW 9 km/h
Température: 14°C
Point de Rosée: 9°C
Humidité: 72%
Barometre: 1021 hPa
Visibilité: Supérieure à  10 km
2017/10/18 01:30 LFKS 180130Z AUTO 29005KT 260V330 CAVOK 14/09 Q1021
LFST - STRASBOURG (Bas-Rhin)
Mise à jour: 18/10/2017 03:30

 Vent W
Vent: W 2 km/h
Visibilité: 10 km
2017/10/18 01:30 LFST 180130Z AUTO 28001KT 9999 3000 R05/1200U FEW003 07/06 Q1017 TEMPO 0600 FG VV///
 
LFBT - TARBES - LOURDES (Hautes-Pyrénées)
Mise à jour: 18/10/2017 03:30
Couvert
Couvert
 Vent SSE
Vent: SSE 9 km/h
Température: 15°C
Point de Rosée: 10°C
Humidité: 72%
Barometre: 1014 hPa
Nuage: Couvert
Visibilité: 10 km
2017/10/18 01:30 LFBT 180130Z AUTO 15005KT 120V180 9999 BKN100 OVC120 15/10 Q1014 NOSIG
LFBO - TOULOUSE BLAGNAC (Haute-Garonne)
Mise à jour: 18/10/2017 03:30
Nuageux
Nuageux
 Vent SE
Vent: SE 20 km/h
Température: 18°C
Point de Rosée: 14°C
Humidité: 78%
Barometre: 1015 hPa
Nuage: Nuageux
Visibilité: 10 km
2017/10/18 01:30 LFBO 180130Z AUTO 14011KT 100V180 9999 FEW017 BKN130 BKN180 18/14 Q1015 TEMPO 13015G28KT BKN012
 
LFOT - TOURS (Indre-et-Loire)
Mise à jour: 18/10/2017 03:30
Clair
Clair
 Vent S
Vent: S 7 km/h
Température: 16°C
Point de Rosée: 12°C
Humidité: 77%
Barometre: 1014 hPa
Visibilité: Supérieure à  10 km
2017/10/18 01:30 LFOT 180130Z AUTO 19004KT 160V220 CAVOK 16/12 Q1014 NOSIG
LFPN - TOUSSUS-LE-NOBLE (Yvelines)
Mise à jour: 18/10/2017 03:30
Partiellement nuageux
Partiellement nuageux
 Vent SSE
Vent: SSE 4 km/h
Température: 10°C
Point de Rosée: 9°C
Humidité: 94%
Barometre: 1014 hPa
Nuage: Partiellement nuageux
Visibilité: 7 km
2017/10/18 01:30 LFPN 180130Z AUTO 15002KT 7000 NSC 10/09 Q1014
 
LFQB - TROYES (Aube)
Mise à jour: 18/10/2017 03:30
Clair
Clair
 Vent ESE
Vent: ESE 6 km/h
Température: 12°C
Point de Rosée: 7°C
Humidité: 72%
Barometre: 1015 hPa
Visibilité: Supérieure à  10 km
2017/10/18 01:30 LFQB 180130Z AUTO 12003KT CAVOK 12/07 Q1015
LFSI - SAINT-DIZIER (Haute-Marne)
Mise à jour: 18/10/2017 03:30
Clair
Clair
 Vent E
Vent: E 9 km/h
Température: 10°C
Température au Vent: 9°C
Point de Rosée: 6°C
Humidité: 76%
Barometre: 1015 hPa
Visibilité: Supérieure à  10 km
2017/10/18 01:30 LFSI 180130Z AUTO 09005KT CAVOK 10/06 Q1015

Metar display script from Saratoga-Weather.org